Главная страница
METAR-TAF:

METAR-TAF

Аэропорты :

Борисполь, Украина

широта: 50-20N, долгота: 030-58E, высота над уровнем моря: 121 м

Текущие метеонаблюдения

Эта сводка был подготовлена 18 минут назад, в 02:30 UTC
Ветер 4 Узел от юго-западный, изменяющийся между южный и западный-юго-западный
Температура 14°C
Влажность 88%
Давление 1018 hPa
Видимость 10 км и более
Нет облачности ниже 1500 м, и нет кучево-дождевой облачности

METAR: UKBB 210230Z 22002MPS 170V240 CAVOK 14/12 Q1018 R88/D NOSIG

Время: 05:48 (02:48 UTC)

Прогноз

Эта сводка был подготовлена 3 часа и 48 минут назад, в 23:00 UTC
Прогноз действительный с 21-го 00 UTC до 21-го 24 UTC
Ветер 2 Узел переменных направлений
Видимость 10 км и более
Нет облачности ниже 1500 м, и нет кучево-дождевой облачности
изменения
С 21-го 06 UTC до 21-го 08 UTC
Ветер 8 Узел от юго-западный с порывами до 17 Узел

TAF: UKBB 202300Z 2100/2124 VRB01MPS CAVOK TX30/2112Z TN16/2102Z BECMG 2106/2108 22004G09MPS

Метеонаблюдения и прогнозы для более 4000 аэропортов (сводки METAR и TAF).

Имеющиеся станции представлены на карте желтыми и красными точками.

Чтобы увидеть название станции, наведите на нее мышь.

Затем щелкните, чтобы увидеть метеонаблюдения и метеопрогнозы.

Управление картой: чтобы увеличить масштаб, щелкните зеленые кнопки с черным крестиком; чтобы уменьшить масштаб, щелкните зеленую кнопку с тире; для просмотра соседних карт щелкайте зеленые стрелки.


METAR-TAF: